sensor_id;sensor_type;location;lat;lon;timestamp;temperature;humidity
18717;DHT22;9487;50.892;6.906;2023-04-21T00:00:50;8.10;99.90
18717;DHT22;9487;50.892;6.906;2023-04-21T00:03:17;8.00;99.90
18717;DHT22;9487;50.892;6.906;2023-04-21T00:05:47;8.00;99.90
18717;DHT22;9487;50.892;6.906;2023-04-21T00:08:14;7.90;99.90
18717;DHT22;9487;50.892;6.906;2023-04-21T00:10:41;7.90;99.90
18717;DHT22;9487;50.892;6.906;2023-04-21T00:13:08;7.90;99.90
18717;DHT22;9487;50.892;6.906;2023-04-21T00:15:36;7.90;99.90
18717;DHT22;9487;50.892;6.906;2023-04-21T00:18:04;7.90;99.90
18717;DHT22;9487;50.892;6.906;2023-04-21T00:20:31;7.90;99.90
18717;DHT22;9487;50.892;6.906;2023-04-21T00:22:58;7.90;99.90
18717;DHT22;9487;50.892;6.906;2023-04-21T00:25:25;8.00;99.90
18717;DHT22;9487;50.892;6.906;2023-04-21T00:27:52;8.00;99.90
18717;DHT22;9487;50.892;6.906;2023-04-21T00:30:19;8.00;99.90
18717;DHT22;9487;50.892;6.906;2023-04-21T00:32:47;7.90;99.90
18717;DHT22;9487;50.892;6.906;2023-04-21T00:35:14;7.90;99.90
18717;DHT22;9487;50.892;6.906;2023-04-21T00:37:41;7.90;99.90
18717;DHT22;9487;50.892;6.906;2023-04-21T00:40:08;7.90;99.90
18717;DHT22;9487;50.892;6.906;2023-04-21T00:42:35;8.00;99.90
18717;DHT22;9487;50.892;6.906;2023-04-21T00:45:02;8.00;99.90
18717;DHT22;9487;50.892;6.906;2023-04-21T00:47:29;8.00;99.90
18717;DHT22;9487;50.892;6.906;2023-04-21T00:49:58;8.00;99.90
18717;DHT22;9487;50.892;6.906;2023-04-21T00:52:25;7.90;99.90
18717;DHT22;9487;50.892;6.906;2023-04-21T00:54:53;7.90;99.90
18717;DHT22;9487;50.892;6.906;2023-04-21T00:57:20;7.90;99.90
18717;DHT22;9487;50.892;6.906;2023-04-21T00:59:47;7.90;99.90
18717;DHT22;9487;50.892;6.906;2023-04-21T01:02:15;7.90;99.90
18717;DHT22;9487;50.892;6.906;2023-04-21T01:04:42;8.00;99.90
18717;DHT22;9487;50.892;6.906;2023-04-21T01:07:11;8.00;99.90
18717;DHT22;9487;50.892;6.906;2023-04-21T01:09:38;8.00;99.90
18717;DHT22;9487;50.892;6.906;2023-04-21T01:12:06;8.10;99.90
18717;DHT22;9487;50.892;6.906;2023-04-21T01:14:33;8.20;99.90
18717;DHT22;9487;50.892;6.906;2023-04-21T01:17:00;8.30;99.90
18717;DHT22;9487;50.892;6.906;2023-04-21T01:19:32;8.40;99.90
18717;DHT22;9487;50.892;6.906;2023-04-21T01:22:01;8.30;99.90
18717;DHT22;9487;50.892;6.906;2023-04-21T01:24:36;8.30;99.90
18717;DHT22;9487;50.892;6.906;2023-04-21T01:27:06;8.30;99.90
18717;DHT22;9487;50.892;6.906;2023-04-21T01:29:34;8.40;99.90
18717;DHT22;9487;50.892;6.906;2023-04-21T01:32:04;8.50;99.90
18717;DHT22;9487;50.892;6.906;2023-04-21T01:34:31;8.50;99.90
18717;DHT22;9487;50.892;6.906;2023-04-21T01:36:58;8.60;99.90
18717;DHT22;9487;50.892;6.906;2023-04-21T01:39:27;8.60;99.90
18717;DHT22;9487;50.892;6.906;2023-04-21T01:41:54;8.70;99.90
18717;DHT22;9487;50.892;6.906;2023-04-21T01:44:22;8.80;99.90
18717;DHT22;9487;50.892;6.906;2023-04-21T01:46:49;8.90;99.90
18717;DHT22;9487;50.892;6.906;2023-04-21T01:49:16;8.90;99.90
18717;DHT22;9487;50.892;6.906;2023-04-21T01:51:43;9.00;99.90
18717;DHT22;9487;50.892;6.906;2023-04-21T01:54:10;8.90;99.90
18717;DHT22;9487;50.892;6.906;2023-04-21T01:56:38;9.00;99.90
18717;DHT22;9487;50.892;6.906;2023-04-21T01:59:05;9.10;99.90
18717;DHT22;9487;50.892;6.906;2023-04-21T02:01:31;8.90;99.90
18717;DHT22;9487;50.892;6.906;2023-04-21T02:04:00;8.90;99.90
18717;DHT22;9487;50.892;6.906;2023-04-21T02:06:27;9.00;99.90
18717;DHT22;9487;50.892;6.906;2023-04-21T02:08:54;9.00;99.90
18717;DHT22;9487;50.892;6.906;2023-04-21T02:11:21;9.00;99.90
18717;DHT22;9487;50.892;6.906;2023-04-21T02:13:51;9.00;99.90
18717;DHT22;9487;50.892;6.906;2023-04-21T02:16:17;9.10;99.90
18717;DHT22;9487;50.892;6.906;2023-04-21T02:18:45;9.20;99.90
18717;DHT22;9487;50.892;6.906;2023-04-21T02:21:13;9.10;99.90
18717;DHT22;9487;50.892;6.906;2023-04-21T02:23:40;9.00;99.90
18717;DHT22;9487;50.892;6.906;2023-04-21T02:26:07;9.00;99.90
18717;DHT22;9487;50.892;6.906;2023-04-21T02:28:34;9.00;99.90
18717;DHT22;9487;50.892;6.906;2023-04-21T02:31:02;9.00;99.90
18717;DHT22;9487;50.892;6.906;2023-04-21T02:33:29;9.00;99.90
18717;DHT22;9487;50.892;6.906;2023-04-21T02:35:55;8.90;99.90
18717;DHT22;9487;50.892;6.906;2023-04-21T02:38:22;8.90;99.90
18717;DHT22;9487;50.892;6.906;2023-04-21T02:40:49;8.80;99.90
18717;DHT22;9487;50.892;6.906;2023-04-21T02:43:16;8.80;99.90
18717;DHT22;9487;50.892;6.906;2023-04-21T02:45:43;8.70;99.90
18717;DHT22;9487;50.892;6.906;2023-04-21T02:48:11;8.70;99.90
18717;DHT22;9487;50.892;6.906;2023-04-21T02:50:38;8.60;99.90
18717;DHT22;9487;50.892;6.906;2023-04-21T02:53:06;8.70;99.90
18717;DHT22;9487;50.892;6.906;2023-04-21T02:55:33;8.60;99.90
18717;DHT22;9487;50.892;6.906;2023-04-21T02:57:59;8.60;99.90
18717;DHT22;9487;50.892;6.906;2023-04-21T03:00:26;8.60;99.90
18717;DHT22;9487;50.892;6.906;2023-04-21T03:02:53;8.60;99.90
18717;DHT22;9487;50.892;6.906;2023-04-21T03:05:21;8.70;99.90
18717;DHT22;9487;50.892;6.906;2023-04-21T03:07:48;8.60;99.90
18717;DHT22;9487;50.892;6.906;2023-04-21T03:10:15;8.60;99.90
18717;DHT22;9487;50.892;6.906;2023-04-21T03:12:42;8.60;99.90
18717;DHT22;9487;50.892;6.906;2023-04-21T03:15:08;8.50;99.90
18717;DHT22;9487;50.892;6.906;2023-04-21T03:17:35;8.50;99.90
18717;DHT22;9487;50.892;6.906;2023-04-21T03:20:03;8.50;99.90
18717;DHT22;9487;50.892;6.906;2023-04-21T03:22:33;8.40;99.90
18717;DHT22;9487;50.892;6.906;2023-04-21T03:25:00;8.40;99.90
18717;DHT22;9487;50.892;6.906;2023-04-21T03:27:27;8.50;99.90
18717;DHT22;9487;50.892;6.906;2023-04-21T03:29:54;8.40;99.90
18717;DHT22;9487;50.892;6.906;2023-04-21T03:32:21;8.40;99.90
18717;DHT22;9487;50.892;6.906;2023-04-21T03:34:48;8.40;99.90
18717;DHT22;9487;50.892;6.906;2023-04-21T03:37:15;8.40;99.90
18717;DHT22;9487;50.892;6.906;2023-04-21T03:39:43;8.40;99.90
18717;DHT22;9487;50.892;6.906;2023-04-21T03:42:10;8.40;99.90
18717;DHT22;9487;50.892;6.906;2023-04-21T03:44:37;8.40;99.90
18717;DHT22;9487;50.892;6.906;2023-04-21T03:47:04;8.30;99.90
18717;DHT22;9487;50.892;6.906;2023-04-21T03:49:33;8.30;99.90
18717;DHT22;9487;50.892;6.906;2023-04-21T03:51:59;8.20;99.90
18717;DHT22;9487;50.892;6.906;2023-04-21T03:54:26;8.10;99.90
18717;DHT22;9487;50.892;6.906;2023-04-21T03:56:54;8.10;99.90
18717;DHT22;9487;50.892;6.906;2023-04-21T03:59:21;8.10;99.90
18717;DHT22;9487;50.892;6.906;2023-04-21T04:01:48;8.20;99.90
18717;DHT22;9487;50.892;6.906;2023-04-21T04:04:15;8.10;99.90
18717;DHT22;9487;50.892;6.906;2023-04-21T04:06:42;8.10;99.90
18717;DHT22;9487;50.892;6.906;2023-04-21T04:09:08;8.10;99.90
18717;DHT22;9487;50.892;6.906;2023-04-21T04:11:35;8.10;99.90
18717;DHT22;9487;50.892;6.906;2023-04-21T04:14:03;8.10;99.90
18717;DHT22;9487;50.892;6.906;2023-04-21T04:16:30;8.10;99.90
18717;DHT22;9487;50.892;6.906;2023-04-21T04:18:59;8.00;99.90
18717;DHT22;9487;50.892;6.906;2023-04-21T04:21:25;7.90;99.90
18717;DHT22;9487;50.892;6.906;2023-04-21T04:23:53;7.80;99.90
18717;DHT22;9487;50.892;6.906;2023-04-21T04:26:20;7.80;99.90
18717;DHT22;9487;50.892;6.906;2023-04-21T04:28:49;7.90;99.90
18717;DHT22;9487;50.892;6.906;2023-04-21T04:31:17;7.90;99.90
18717;DHT22;9487;50.892;6.906;2023-04-21T04:33:44;7.90;99.90
18717;DHT22;9487;50.892;6.906;2023-04-21T04:36:11;7.90;99.90
18717;DHT22;9487;50.892;6.906;2023-04-21T04:38:38;7.90;99.90
18717;DHT22;9487;50.892;6.906;2023-04-21T04:41:06;7.80;99.90
18717;DHT22;9487;50.892;6.906;2023-04-21T04:43:33;7.90;99.90
18717;DHT22;9487;50.892;6.906;2023-04-21T04:46:01;8.00;99.90
18717;DHT22;9487;50.892;6.906;2023-04-21T04:48:29;8.00;99.90
18717;DHT22;9487;50.892;6.906;2023-04-21T04:50:56;8.00;99.90
18717;DHT22;9487;50.892;6.906;2023-04-21T04:53:23;7.90;99.90
18717;DHT22;9487;50.892;6.906;2023-04-21T04:55:50;7.90;99.90
18717;DHT22;9487;50.892;6.906;2023-04-21T04:58:18;7.90;99.90
18717;DHT22;9487;50.892;6.906;2023-04-21T05:00:45;8.00;99.90
18717;DHT22;9487;50.892;6.906;2023-04-21T05:03:12;7.90;99.90
18717;DHT22;9487;50.892;6.906;2023-04-21T05:05:40;8.00;99.90
18717;DHT22;9487;50.892;6.906;2023-04-21T05:08:07;8.10;99.90
18717;DHT22;9487;50.892;6.906;2023-04-21T05:10:34;8.10;99.90
18717;DHT22;9487;50.892;6.906;2023-04-21T05:13:01;8.20;99.90
18717;DHT22;9487;50.892;6.906;2023-04-21T05:15:27;8.30;99.90
18717;DHT22;9487;50.892;6.906;2023-04-21T05:17:54;8.30;99.90
18717;DHT22;9487;50.892;6.906;2023-04-21T05:20:21;8.20;99.90
18717;DHT22;9487;50.892;6.906;2023-04-21T05:22:49;8.20;99.90
18717;DHT22;9487;50.892;6.906;2023-04-21T05:25:16;8.20;99.90
18717;DHT22;9487;50.892;6.906;2023-04-21T05:27:43;8.20;99.90
18717;DHT22;9487;50.892;6.906;2023-04-21T05:30:10;8.20;99.90
18717;DHT22;9487;50.892;6.906;2023-04-21T05:32:37;8.30;99.90
18717;DHT22;9487;50.892;6.906;2023-04-21T05:35:04;8.30;99.90
18717;DHT22;9487;50.892;6.906;2023-04-21T05:37:31;8.40;99.90
18717;DHT22;9487;50.892;6.906;2023-04-21T05:39:59;8.40;99.90
18717;DHT22;9487;50.892;6.906;2023-04-21T05:42:26;8.40;99.90
18717;DHT22;9487;50.892;6.906;2023-04-21T05:44:53;8.30;99.90
18717;DHT22;9487;50.892;6.906;2023-04-21T05:47:20;8.30;99.90
18717;DHT22;9487;50.892;6.906;2023-04-21T05:49:49;8.30;99.90
18717;DHT22;9487;50.892;6.906;2023-04-21T05:52:18;8.30;99.90
18717;DHT22;9487;50.892;6.906;2023-04-21T05:54:45;8.30;99.90
18717;DHT22;9487;50.892;6.906;2023-04-21T05:57:13;8.30;99.90
18717;DHT22;9487;50.892;6.906;2023-04-21T05:59:40;8.30;99.90
18717;DHT22;9487;50.892;6.906;2023-04-21T06:02:08;8.20;99.90
18717;DHT22;9487;50.892;6.906;2023-04-21T06:04:34;8.20;99.90
18717;DHT22;9487;50.892;6.906;2023-04-21T06:07:04;8.10;99.90
18717;DHT22;9487;50.892;6.906;2023-04-21T06:09:31;8.20;99.90
18717;DHT22;9487;50.892;6.906;2023-04-21T06:11:58;8.40;99.90
18717;DHT22;9487;50.892;6.906;2023-04-21T06:14:27;8.40;99.90
18717;DHT22;9487;50.892;6.906;2023-04-21T06:16:54;8.50;99.90
18717;DHT22;9487;50.892;6.906;2023-04-21T06:19:21;8.40;99.90
18717;DHT22;9487;50.892;6.906;2023-04-21T06:21:47;8.40;99.90
18717;DHT22;9487;50.892;6.906;2023-04-21T06:24:14;8.50;99.90
18717;DHT22;9487;50.892;6.906;2023-04-21T06:26:48;8.50;99.90
18717;DHT22;9487;50.892;6.906;2023-04-21T06:29:15;8.60;99.90
18717;DHT22;9487;50.892;6.906;2023-04-21T06:31:43;8.70;99.90
18717;DHT22;9487;50.892;6.906;2023-04-21T06:34:10;8.80;99.90
18717;DHT22;9487;50.892;6.906;2023-04-21T06:36:37;8.90;99.90
18717;DHT22;9487;50.892;6.906;2023-04-21T06:39:04;8.90;99.90
18717;DHT22;9487;50.892;6.906;2023-04-21T06:41:31;9.00;99.90
18717;DHT22;9487;50.892;6.906;2023-04-21T06:43:57;9.10;99.90
18717;DHT22;9487;50.892;6.906;2023-04-21T06:46:24;9.10;99.90
18717;DHT22;9487;50.892;6.906;2023-04-21T06:48:52;9.30;99.90
18717;DHT22;9487;50.892;6.906;2023-04-21T06:51:19;9.20;99.90
18717;DHT22;9487;50.892;6.906;2023-04-21T06:53:46;9.10;99.90
18717;DHT22;9487;50.892;6.906;2023-04-21T06:56:12;9.30;99.90
18717;DHT22;9487;50.892;6.906;2023-04-21T06:58:39;9.40;99.90
18717;DHT22;9487;50.892;6.906;2023-04-21T07:01:06;9.50;99.90
18717;DHT22;9487;50.892;6.906;2023-04-21T07:03:33;9.80;99.90
18717;DHT22;9487;50.892;6.906;2023-04-21T07:06:01;9.90;99.90
18717;DHT22;9487;50.892;6.906;2023-04-21T07:08:28;10.00;99.90
18717;DHT22;9487;50.892;6.906;2023-04-21T07:10:55;10.10;99.90
18717;DHT22;9487;50.892;6.906;2023-04-21T07:13:21;10.10;99.90
18717;DHT22;9487;50.892;6.906;2023-04-21T07:15:48;10.30;99.90
18717;DHT22;9487;50.892;6.906;2023-04-21T07:18:15;10.40;99.90
18717;DHT22;9487;50.892;6.906;2023-04-21T07:20:42;10.60;99.90
18717;DHT22;9487;50.892;6.906;2023-04-21T07:23:10;10.80;99.90
18717;DHT22;9487;50.892;6.906;2023-04-21T07:25:37;10.80;99.90
18717;DHT22;9487;50.892;6.906;2023-04-21T07:28:04;10.80;33.10
18717;DHT22;9487;50.892;6.906;2023-04-21T07:30:31;11.00;1.00
18717;DHT22;9487;50.892;6.906;2023-04-21T07:32:57;11.30;1.00
18717;DHT22;9487;50.892;6.906;2023-04-21T07:35:25;11.40;1.00
18717;DHT22;9487;50.892;6.906;2023-04-21T07:37:52;11.30;1.00
18717;DHT22;9487;50.892;6.906;2023-04-21T07:40:20;11.30;1.00
18717;DHT22;9487;50.892;6.906;2023-04-21T07:42:47;11.40;1.00
18717;DHT22;9487;50.892;6.906;2023-04-21T07:45:13;11.50;1.00
18717;DHT22;9487;50.892;6.906;2023-04-21T07:47:40;11.30;1.00
18717;DHT22;9487;50.892;6.906;2023-04-21T07:50:08;11.20;1.00
18717;DHT22;9487;50.892;6.906;2023-04-21T07:52:35;11.10;1.00
18717;DHT22;9487;50.892;6.906;2023-04-21T07:55:02;11.00;1.00
18717;DHT22;9487;50.892;6.906;2023-04-21T07:57:30;10.90;1.00
18717;DHT22;9487;50.892;6.906;2023-04-21T07:59:59;11.00;1.00
18717;DHT22;9487;50.892;6.906;2023-04-21T08:02:25;10.90;1.00
18717;DHT22;9487;50.892;6.906;2023-04-21T08:04:52;10.90;1.00
18717;DHT22;9487;50.892;6.906;2023-04-21T08:07:19;10.90;1.00
18717;DHT22;9487;50.892;6.906;2023-04-21T08:09:46;11.00;1.00
18717;DHT22;9487;50.892;6.906;2023-04-21T08:12:12;11.00;1.00
18717;DHT22;9487;50.892;6.906;2023-04-21T08:14:40;11.20;1.00
18717;DHT22;9487;50.892;6.906;2023-04-21T08:17:07;11.20;1.00
18717;DHT22;9487;50.892;6.906;2023-04-21T08:19:34;11.30;1.00
18717;DHT22;9487;50.892;6.906;2023-04-21T08:22:02;11.30;1.00
18717;DHT22;9487;50.892;6.906;2023-04-21T08:24:28;11.10;1.00
18717;DHT22;9487;50.892;6.906;2023-04-21T08:26:55;11.20;1.00
18717;DHT22;9487;50.892;6.906;2023-04-21T08:29:22;11.20;1.00
18717;DHT22;9487;50.892;6.906;2023-04-21T08:31:50;11.20;1.00
18717;DHT22;9487;50.892;6.906;2023-04-21T08:34:17;11.20;1.00
18717;DHT22;9487;50.892;6.906;2023-04-21T08:36:44;11.30;1.00
18717;DHT22;9487;50.892;6.906;2023-04-21T08:39:11;11.40;1.00
18717;DHT22;9487;50.892;6.906;2023-04-21T08:41:39;11.60;1.00
18717;DHT22;9487;50.892;6.906;2023-04-21T08:44:06;11.70;1.00
18717;DHT22;9487;50.892;6.906;2023-04-21T08:46:34;11.90;1.00
18717;DHT22;9487;50.892;6.906;2023-04-21T08:49:03;12.20;1.00
18717;DHT22;9487;50.892;6.906;2023-04-21T08:51:29;12.30;1.00
18717;DHT22;9487;50.892;6.906;2023-04-21T08:53:57;12.20;1.00
18717;DHT22;9487;50.892;6.906;2023-04-21T08:56:24;12.20;1.00
18717;DHT22;9487;50.892;6.906;2023-04-21T08:58:51;12.40;1.00
18717;DHT22;9487;50.892;6.906;2023-04-21T09:01:18;12.40;1.00
18717;DHT22;9487;50.892;6.906;2023-04-21T09:03:45;12.50;99.90
18717;DHT22;9487;50.892;6.906;2023-04-21T09:06:13;12.50;99.90
18717;DHT22;9487;50.892;6.906;2023-04-21T09:08:42;12.60;99.90
18717;DHT22;9487;50.892;6.906;2023-04-21T09:11:12;12.90;1.00
18717;DHT22;9487;50.892;6.906;2023-04-21T09:13:42;12.80;1.00
18717;DHT22;9487;50.892;6.906;2023-04-21T09:16:15;12.70;1.00
18717;DHT22;9487;50.892;6.906;2023-04-21T09:18:43;12.70;99.90
18717;DHT22;9487;50.892;6.906;2023-04-21T09:21:14;12.80;80.20
18717;DHT22;9487;50.892;6.906;2023-04-21T09:23:42;13.00;1.00
18717;DHT22;9487;50.892;6.906;2023-04-21T09:26:10;13.00;1.00
18717;DHT22;9487;50.892;6.906;2023-04-21T09:28:40;12.90;1.00
18717;DHT22;9487;50.892;6.906;2023-04-21T09:31:12;12.90;99.90
18717;DHT22;9487;50.892;6.906;2023-04-21T09:33:44;12.90;99.90
18717;DHT22;9487;50.892;6.906;2023-04-21T09:36:18;12.90;1.00
18717;DHT22;9487;50.892;6.906;2023-04-21T09:38:54;13.00;1.00
18717;DHT22;9487;50.892;6.906;2023-04-21T09:41:21;13.20;1.00
18717;DHT22;9487;50.892;6.906;2023-04-21T09:43:48;13.20;1.00
18717;DHT22;9487;50.892;6.906;2023-04-21T09:46:15;13.60;1.00
18717;DHT22;9487;50.892;6.906;2023-04-21T09:48:44;13.80;99.90
18717;DHT22;9487;50.892;6.906;2023-04-21T09:51:12;13.90;99.90
18717;DHT22;9487;50.892;6.906;2023-04-21T09:53:41;14.00;99.90
18717;DHT22;9487;50.892;6.906;2023-04-21T09:56:11;14.00;1.00
18717;DHT22;9487;50.892;6.906;2023-04-21T09:58:47;14.20;1.00
18717;DHT22;9487;50.892;6.906;2023-04-21T10:01:14;14.10;1.00
18717;DHT22;9487;50.892;6.906;2023-04-21T10:03:43;14.00;10.20
18717;DHT22;9487;50.892;6.906;2023-04-21T10:06:11;13.90;1.00
18717;DHT22;9487;50.892;6.906;2023-04-21T10:08:39;13.80;1.00
18717;DHT22;9487;50.892;6.906;2023-04-21T10:11:06;13.80;70.40
18717;DHT22;9487;50.892;6.906;2023-04-21T10:13:34;13.90;99.20
18717;DHT22;9487;50.892;6.906;2023-04-21T10:16:03;14.10;1.00
18717;DHT22;9487;50.892;6.906;2023-04-21T10:18:34;14.30;99.90
18717;DHT22;9487;50.892;6.906;2023-04-21T10:21:03;14.50;1.00
18717;DHT22;9487;50.892;6.906;2023-04-21T10:23:34;14.60;1.00
18717;DHT22;9487;50.892;6.906;2023-04-21T10:26:09;14.70;99.90
18717;DHT22;9487;50.892;6.906;2023-04-21T10:28:44;14.90;99.90
18717;DHT22;9487;50.892;6.906;2023-04-21T10:31:22;15.00;1.00
18717;DHT22;9487;50.892;6.906;2023-04-21T10:34:17;15.00;1.00
18717;DHT22;9487;50.892;6.906;2023-04-21T10:37:12;15.00;1.00
18717;DHT22;9487;50.892;6.906;2023-04-21T10:39:44;15.10;1.00
18717;DHT22;9487;50.892;6.906;2023-04-21T10:42:21;15.40;99.90
18717;DHT22;9487;50.892;6.906;2023-04-21T10:45:11;15.50;99.90
18717;DHT22;9487;50.892;6.906;2023-04-21T10:47:45;15.50;1.00
18717;DHT22;9487;50.892;6.906;2023-04-21T10:50:18;15.70;1.00
18717;DHT22;9487;50.892;6.906;2023-04-21T10:52:51;15.80;99.90
18717;DHT22;9487;50.892;6.906;2023-04-21T10:55:19;15.80;99.90
18717;DHT22;9487;50.892;6.906;2023-04-21T10:57:48;16.00;1.00
18717;DHT22;9487;50.892;6.906;2023-04-21T11:00:17;16.00;1.00
18717;DHT22;9487;50.892;6.906;2023-04-21T11:02:51;16.10;1.00
18717;DHT22;9487;50.892;6.906;2023-04-21T11:05:18;16.10;1.00
18717;DHT22;9487;50.892;6.906;2023-04-21T11:07:45;15.90;92.90
18717;DHT22;9487;50.892;6.906;2023-04-21T11:10:12;16.00;1.00
18717;DHT22;9487;50.892;6.906;2023-04-21T11:12:39;16.10;1.00
18717;DHT22;9487;50.892;6.906;2023-04-21T11:15:09;16.10;99.90
18717;DHT22;9487;50.892;6.906;2023-04-21T11:17:37;15.90;99.90
18717;DHT22;9487;50.892;6.906;2023-04-21T11:20:08;16.00;99.90
18717;DHT22;9487;50.892;6.906;2023-04-21T11:22:36;16.10;99.90
18717;DHT22;9487;50.892;6.906;2023-04-21T11:25:03;16.30;99.90
18717;DHT22;9487;50.892;6.906;2023-04-21T11:27:30;16.30;1.00
18717;DHT22;9487;50.892;6.906;2023-04-21T11:29:57;16.60;99.90
18717;DHT22;9487;50.892;6.906;2023-04-21T11:32:26;16.70;1.00
18717;DHT22;9487;50.892;6.906;2023-04-21T11:34:53;16.70;95.00
18717;DHT22;9487;50.892;6.906;2023-04-21T11:37:23;16.80;1.00
18717;DHT22;9487;50.892;6.906;2023-04-21T11:39:56;16.90;1.00
18717;DHT22;9487;50.892;6.906;2023-04-21T11:42:23;17.00;1.00
18717;DHT22;9487;50.892;6.906;2023-04-21T11:44:52;17.00;1.00
18717;DHT22;9487;50.892;6.906;2023-04-21T11:47:21;17.10;1.00
18717;DHT22;9487;50.892;6.906;2023-04-21T11:49:51;17.10;1.00
18717;DHT22;9487;50.892;6.906;2023-04-21T11:52:27;17.10;99.90
18717;DHT22;9487;50.892;6.906;2023-04-21T11:54:56;17.20;1.00
18717;DHT22;9487;50.892;6.906;2023-04-21T11:57:24;17.30;99.90
18717;DHT22;9487;50.892;6.906;2023-04-21T11:59:51;17.30;1.00
18717;DHT22;9487;50.892;6.906;2023-04-21T12:02:23;17.50;1.00
18717;DHT22;9487;50.892;6.906;2023-04-21T12:04:59;17.70;1.00
18717;DHT22;9487;50.892;6.906;2023-04-21T12:07:28;17.80;9.70
18717;DHT22;9487;50.892;6.906;2023-04-21T12:09:55;17.80;46.70
18717;DHT22;9487;50.892;6.906;2023-04-21T12:12:22;17.70;37.50
18717;DHT22;9487;50.892;6.906;2023-04-21T12:14:50;17.90;16.70
18717;DHT22;9487;50.892;6.906;2023-04-21T12:17:17;17.90;38.40
18717;DHT22;9487;50.892;6.906;2023-04-21T12:19:45;17.90;1.00
18717;DHT22;9487;50.892;6.906;2023-04-21T12:22:14;18.00;1.00
18717;DHT22;9487;50.892;6.906;2023-04-21T12:24:42;18.20;99.90
18717;DHT22;9487;50.892;6.906;2023-04-21T12:27:09;18.30;99.90
18717;DHT22;9487;50.892;6.906;2023-04-21T12:29:37;18.20;99.90
18717;DHT22;9487;50.892;6.906;2023-04-21T12:32:04;18.30;99.90
18717;DHT22;9487;50.892;6.906;2023-04-21T12:34:30;18.30;99.90
18717;DHT22;9487;50.892;6.906;2023-04-21T12:36:57;18.30;99.90
18717;DHT22;9487;50.892;6.906;2023-04-21T12:39:26;18.30;99.90
18717;DHT22;9487;50.892;6.906;2023-04-21T12:41:53;18.30;1.00
18717;DHT22;9487;50.892;6.906;2023-04-21T12:44:20;18.20;99.90
18717;DHT22;9487;50.892;6.906;2023-04-21T12:46:47;18.40;99.90
18717;DHT22;9487;50.892;6.906;2023-04-21T12:49:14;18.30;1.00
18717;DHT22;9487;50.892;6.906;2023-04-21T12:51:41;18.40;99.90
18717;DHT22;9487;50.892;6.906;2023-04-21T12:54:09;18.40;99.90
18717;DHT22;9487;50.892;6.906;2023-04-21T12:56:37;18.20;99.90
18717;DHT22;9487;50.892;6.906;2023-04-21T12:59:06;18.10;99.90
18717;DHT22;9487;50.892;6.906;2023-04-21T13:01:34;18.00;99.90
18717;DHT22;9487;50.892;6.906;2023-04-21T13:04:01;17.80;99.90
18717;DHT22;9487;50.892;6.906;2023-04-21T13:06:28;17.70;99.90
18717;DHT22;9487;50.892;6.906;2023-04-21T13:08:55;17.70;99.90
18717;DHT22;9487;50.892;6.906;2023-04-21T13:11:22;17.70;1.00
18717;DHT22;9487;50.892;6.906;2023-04-21T13:13:50;17.80;1.00
18717;DHT22;9487;50.892;6.906;2023-04-21T13:16:17;17.90;1.00
18717;DHT22;9487;50.892;6.906;2023-04-21T13:18:44;18.00;1.00
18717;DHT22;9487;50.892;6.906;2023-04-21T13:21:11;17.90;1.00
18717;DHT22;9487;50.892;6.906;2023-04-21T13:23:38;17.90;1.00
18717;DHT22;9487;50.892;6.906;2023-04-21T13:26:06;17.90;1.00
18717;DHT22;9487;50.892;6.906;2023-04-21T13:28:33;18.00;1.00
18717;DHT22;9487;50.892;6.906;2023-04-21T13:31:01;18.00;1.00
18717;DHT22;9487;50.892;6.906;2023-04-21T13:33:28;18.10;1.00
18717;DHT22;9487;50.892;6.906;2023-04-21T13:35:59;18.10;1.00
18717;DHT22;9487;50.892;6.906;2023-04-21T13:38:26;18.10;1.00
18717;DHT22;9487;50.892;6.906;2023-04-21T13:40:53;18.20;1.00
18717;DHT22;9487;50.892;6.906;2023-04-21T13:43:20;18.50;1.00
18717;DHT22;9487;50.892;6.906;2023-04-21T13:45:46;18.50;1.00
18717;DHT22;9487;50.892;6.906;2023-04-21T13:48:18;18.40;1.00
18717;DHT22;9487;50.892;6.906;2023-04-21T13:50:45;18.40;1.00
18717;DHT22;9487;50.892;6.906;2023-04-21T13:53:11;18.50;1.00
18717;DHT22;9487;50.892;6.906;2023-04-21T13:55:40;18.60;1.00
18717;DHT22;9487;50.892;6.906;2023-04-21T13:58:08;18.70;99.90
18717;DHT22;9487;50.892;6.906;2023-04-21T14:00:34;18.80;74.30
18717;DHT22;9487;50.892;6.906;2023-04-21T14:03:01;18.60;99.90
18717;DHT22;9487;50.892;6.906;2023-04-21T14:05:30;18.40;99.90
18717;DHT22;9487;50.892;6.906;2023-04-21T14:07:56;18.30;99.90
18717;DHT22;9487;50.892;6.906;2023-04-21T14:10:23;18.20;99.90
18717;DHT22;9487;50.892;6.906;2023-04-21T14:12:50;18.20;99.90
18717;DHT22;9487;50.892;6.906;2023-04-21T14:15:17;18.30;99.90
18717;DHT22;9487;50.892;6.906;2023-04-21T14:17:44;18.40;99.90
18717;DHT22;9487;50.892;6.906;2023-04-21T14:20:11;18.50;99.90
18717;DHT22;9487;50.892;6.906;2023-04-21T14:22:39;18.60;99.90
18717;DHT22;9487;50.892;6.906;2023-04-21T14:25:06;18.80;99.90
18717;DHT22;9487;50.892;6.906;2023-04-21T14:27:33;18.70;99.90
18717;DHT22;9487;50.892;6.906;2023-04-21T14:30:00;18.80;99.90
18717;DHT22;9487;50.892;6.906;2023-04-21T14:32:27;18.70;99.90
18717;DHT22;9487;50.892;6.906;2023-04-21T14:34:53;18.70;99.90
18717;DHT22;9487;50.892;6.906;2023-04-21T14:37:23;18.90;99.90
18717;DHT22;9487;50.892;6.906;2023-04-21T14:39:51;19.10;99.90
18717;DHT22;9487;50.892;6.906;2023-04-21T14:42:18;19.30;99.90
18717;DHT22;9487;50.892;6.906;2023-04-21T14:44:45;19.50;99.90
18717;DHT22;9487;50.892;6.906;2023-04-21T14:47:12;19.30;99.90
18717;DHT22;9487;50.892;6.906;2023-04-21T14:49:39;19.40;99.90
18717;DHT22;9487;50.892;6.906;2023-04-21T14:52:05;19.50;99.90
18717;DHT22;9487;50.892;6.906;2023-04-21T14:54:32;19.60;99.90
18717;DHT22;9487;50.892;6.906;2023-04-21T14:57:00;19.60;99.90
18717;DHT22;9487;50.892;6.906;2023-04-21T14:59:27;19.50;99.90
18717;DHT22;9487;50.892;6.906;2023-04-21T15:01:55;19.30;99.90
18717;DHT22;9487;50.892;6.906;2023-04-21T15:04:22;19.20;99.90
18717;DHT22;9487;50.892;6.906;2023-04-21T15:06:49;19.00;99.90
18717;DHT22;9487;50.892;6.906;2023-04-21T15:09:16;18.80;99.90
18717;DHT22;9487;50.892;6.906;2023-04-21T15:11:43;18.70;99.90
18717;DHT22;9487;50.892;6.906;2023-04-21T15:14:12;18.80;99.90
18717;DHT22;9487;50.892;6.906;2023-04-21T15:16:39;19.10;99.90
18717;DHT22;9487;50.892;6.906;2023-04-21T15:19:05;19.40;99.90
18717;DHT22;9487;50.892;6.906;2023-04-21T15:21:32;19.80;98.70
18717;DHT22;9487;50.892;6.906;2023-04-21T15:23:59;19.90;97.20
18717;DHT22;9487;50.892;6.906;2023-04-21T15:26:26;19.80;96.90
18717;DHT22;9487;50.892;6.906;2023-04-21T15:28:54;19.60;97.60
18717;DHT22;9487;50.892;6.906;2023-04-21T15:31:23;19.40;98.00
18717;DHT22;9487;50.892;6.906;2023-04-21T15:33:49;19.10;98.60
18717;DHT22;9487;50.892;6.906;2023-04-21T15:36:16;19.00;99.90
18717;DHT22;9487;50.892;6.906;2023-04-21T15:38:43;19.10;99.90
18717;DHT22;9487;50.892;6.906;2023-04-21T15:41:10;19.20;99.90
18717;DHT22;9487;50.892;6.906;2023-04-21T15:43:37;19.50;99.90
18717;DHT22;9487;50.892;6.906;2023-04-21T15:46:04;19.60;99.90
18717;DHT22;9487;50.892;6.906;2023-04-21T15:48:38;19.50;99.90
18717;DHT22;9487;50.892;6.906;2023-04-21T15:51:05;19.20;98.80
18717;DHT22;9487;50.892;6.906;2023-04-21T15:53:32;18.90;99.90
18717;DHT22;9487;50.892;6.906;2023-04-21T15:55:59;18.60;99.90
18717;DHT22;9487;50.892;6.906;2023-04-21T15:58:26;18.40;99.90
18717;DHT22;9487;50.892;6.906;2023-04-21T16:00:53;18.30;99.90